sensor_id;sensor_type;location;lat;lon;timestamp;P1;durP1;ratioP1;P2;durP2;ratioP2
10985;SDS011;5546;48.714;8.738;2023-05-02T00:00:40;6.30;;;5.67;;
10985;SDS011;5546;48.714;8.738;2023-05-02T00:03:06;7.20;;;6.20;;
10985;SDS011;5546;48.714;8.738;2023-05-02T00:05:33;41.93;;;7.80;;
10985;SDS011;5546;48.714;8.738;2023-05-02T00:07:59;7.33;;;6.63;;
10985;SDS011;5546;48.714;8.738;2023-05-02T00:10:24;7.33;;;6.43;;
10985;SDS011;5546;48.714;8.738;2023-05-02T00:12:50;7.73;;;6.20;;
10985;SDS011;5546;48.714;8.738;2023-05-02T00:15:16;6.90;;;6.30;;
10985;SDS011;5546;48.714;8.738;2023-05-02T00:17:42;6.87;;;6.17;;
10985;SDS011;5546;48.714;8.738;2023-05-02T00:20:08;8.10;;;6.40;;
10985;SDS011;5546;48.714;8.738;2023-05-02T00:22:35;10.30;;;6.47;;
10985;SDS011;5546;48.714;8.738;2023-05-02T00:25:01;40.57;;;7.73;;
10985;SDS011;5546;48.714;8.738;2023-05-02T00:27:28;6.97;;;6.27;;
10985;SDS011;5546;48.714;8.738;2023-05-02T00:29:54;14.03;;;6.20;;
10985;SDS011;5546;48.714;8.738;2023-05-02T00:32:20;7.13;;;6.40;;
10985;SDS011;5546;48.714;8.738;2023-05-02T00:34:46;11.97;;;6.40;;
10985;SDS011;5546;48.714;8.738;2023-05-02T00:37:12;10.87;;;6.20;;
10985;SDS011;5546;48.714;8.738;2023-05-02T00:39:38;10.47;;;5.83;;
10985;SDS011;5546;48.714;8.738;2023-05-02T00:42:04;37.70;;;6.90;;
10985;SDS011;5546;48.714;8.738;2023-05-02T00:44:30;28.10;;;6.37;;
10985;SDS011;5546;48.714;8.738;2023-05-02T00:46:55;34.47;;;6.40;;
10985;SDS011;5546;48.714;8.738;2023-05-02T00:49:22;44.60;;;6.53;;
10985;SDS011;5546;48.714;8.738;2023-05-02T00:51:48;21.77;;;5.83;;
10985;SDS011;5546;48.714;8.738;2023-05-02T00:54:14;18.77;;;5.57;;
10985;SDS011;5546;48.714;8.738;2023-05-02T00:56:40;52.40;;;6.97;;
10985;SDS011;5546;48.714;8.738;2023-05-02T00:59:07;14.23;;;5.50;;
10985;SDS011;5546;48.714;8.738;2023-05-02T01:07:18;7.80;;;4.93;;
10985;SDS011;5546;48.714;8.738;2023-05-02T01:10:00;19.33;;;5.97;;
10985;SDS011;5546;48.714;8.738;2023-05-02T01:12:46;43.80;;;7.27;;
10985;SDS011;5546;48.714;8.738;2023-05-02T01:15:23;25.27;;;6.40;;
10985;SDS011;5546;48.714;8.738;2023-05-02T01:17:49;62.03;;;8.73;;
10985;SDS011;5546;48.714;8.738;2023-05-02T01:20:19;16.57;;;6.33;;
10985;SDS011;5546;48.714;8.738;2023-05-02T01:22:47;21.10;;;5.97;;
10985;SDS011;5546;48.714;8.738;2023-05-02T01:25:36;15.60;;;5.83;;
10985;SDS011;5546;48.714;8.738;2023-05-02T01:31:17;18.10;;;6.30;;
10985;SDS011;5546;48.714;8.738;2023-05-02T01:33:43;12.20;;;6.27;;
10985;SDS011;5546;48.714;8.738;2023-05-02T01:36:11;7.83;;;6.33;;
10985;SDS011;5546;48.714;8.738;2023-05-02T01:38:38;7.80;;;5.90;;
10985;SDS011;5546;48.714;8.738;2023-05-02T01:41:06;7.40;;;6.40;;
10985;SDS011;5546;48.714;8.738;2023-05-02T01:43:32;7.13;;;5.80;;
10985;SDS011;5546;48.714;8.738;2023-05-02T01:46:00;6.53;;;5.93;;
10985;SDS011;5546;48.714;8.738;2023-05-02T01:48:28;7.30;;;6.37;;
10985;SDS011;5546;48.714;8.738;2023-05-02T01:50:55;11.53;;;6.50;;
10985;SDS011;5546;48.714;8.738;2023-05-02T01:53:23;11.60;;;6.30;;
10985;SDS011;5546;48.714;8.738;2023-05-02T01:55:50;7.30;;;6.47;;
10985;SDS011;5546;48.714;8.738;2023-05-02T01:58:18;6.10;;;5.60;;
10985;SDS011;5546;48.714;8.738;2023-05-02T02:00:45;6.30;;;5.73;;
10985;SDS011;5546;48.714;8.738;2023-05-02T02:03:11;13.07;;;5.57;;
10985;SDS011;5546;48.714;8.738;2023-05-02T02:05:38;6.43;;;5.47;;
10985;SDS011;5546;48.714;8.738;2023-05-02T02:08:05;6.73;;;5.33;;
10985;SDS011;5546;48.714;8.738;2023-05-02T02:10:35;6.73;;;6.03;;
10985;SDS011;5546;48.714;8.738;2023-05-02T02:13:26;10.47;;;5.77;;
10985;SDS011;5546;48.714;8.738;2023-05-02T02:15:52;5.83;;;5.23;;
10985;SDS011;5546;48.714;8.738;2023-05-02T02:18:24;5.53;;;5.03;;
10985;SDS011;5546;48.714;8.738;2023-05-02T02:20:52;5.73;;;5.23;;
10985;SDS011;5546;48.714;8.738;2023-05-02T02:23:19;7.20;;;5.50;;
10985;SDS011;5546;48.714;8.738;2023-05-02T02:25:47;8.37;;;5.40;;
10985;SDS011;5546;48.714;8.738;2023-05-02T02:28:15;6.80;;;6.10;;
10985;SDS011;5546;48.714;8.738;2023-05-02T02:30:40;6.80;;;6.03;;
10985;SDS011;5546;48.714;8.738;2023-05-02T02:33:06;6.43;;;5.83;;
10985;SDS011;5546;48.714;8.738;2023-05-02T02:35:36;6.33;;;5.70;;
10985;SDS011;5546;48.714;8.738;2023-05-02T02:38:10;8.03;;;6.03;;
10985;SDS011;5546;48.714;8.738;2023-05-02T02:40:48;6.27;;;5.67;;
10985;SDS011;5546;48.714;8.738;2023-05-02T02:44:17;6.40;;;5.80;;
10985;SDS011;5546;48.714;8.738;2023-05-02T02:46:33;6.43;;;5.83;;
10985;SDS011;5546;48.714;8.738;2023-05-02T02:52:04;6.73;;;4.73;;
10985;SDS011;5546;48.714;8.738;2023-05-02T02:54:40;6.27;;;5.60;;
10985;SDS011;5546;48.714;8.738;2023-05-02T02:57:17;10.37;;;6.63;;
10985;SDS011;5546;48.714;8.738;2023-05-02T03:00:15;8.47;;;5.83;;
10985;SDS011;5546;48.714;8.738;2023-05-02T03:02:45;12.80;;;5.80;;
10985;SDS011;5546;48.714;8.738;2023-05-02T03:05:11;8.43;;;5.40;;
10985;SDS011;5546;48.714;8.738;2023-05-02T03:07:37;15.03;;;5.80;;
10985;SDS011;5546;48.714;8.738;2023-05-02T03:10:04;8.50;;;5.00;;
10985;SDS011;5546;48.714;8.738;2023-05-02T03:12:30;7.63;;;5.53;;
10985;SDS011;5546;48.714;8.738;2023-05-02T03:15:02;8.27;;;6.00;;
10985;SDS011;5546;48.714;8.738;2023-05-02T03:17:49;9.70;;;5.53;;
10985;SDS011;5546;48.714;8.738;2023-05-02T03:20:15;5.97;;;5.37;;
10985;SDS011;5546;48.714;8.738;2023-05-02T03:22:40;9.00;;;6.20;;
10985;SDS011;5546;48.714;8.738;2023-05-02T03:25:07;6.80;;;6.20;;
10985;SDS011;5546;48.714;8.738;2023-05-02T03:27:33;7.83;;;6.73;;
10985;SDS011;5546;48.714;8.738;2023-05-02T03:29:58;8.57;;;6.73;;
10985;SDS011;5546;48.714;8.738;2023-05-02T03:32:24;11.23;;;6.30;;
10985;SDS011;5546;48.714;8.738;2023-05-02T03:34:51;7.63;;;6.47;;
10985;SDS011;5546;48.714;8.738;2023-05-02T03:37:16;13.10;;;6.20;;
10985;SDS011;5546;48.714;8.738;2023-05-02T03:39:42;7.30;;;5.83;;
10985;SDS011;5546;48.714;8.738;2023-05-02T03:42:08;13.27;;;5.60;;
10985;SDS011;5546;48.714;8.738;2023-05-02T03:44:34;8.47;;;5.33;;
10985;SDS011;5546;48.714;8.738;2023-05-02T03:47:00;11.07;;;5.63;;
10985;SDS011;5546;48.714;8.738;2023-05-02T03:49:26;8.20;;;5.57;;
10985;SDS011;5546;48.714;8.738;2023-05-02T03:51:52;6.73;;;5.43;;
10985;SDS011;5546;48.714;8.738;2023-05-02T03:54:18;6.57;;;5.83;;
10985;SDS011;5546;48.714;8.738;2023-05-02T03:56:44;8.43;;;5.83;;
10985;SDS011;5546;48.714;8.738;2023-05-02T03:59:10;9.53;;;6.13;;
10985;SDS011;5546;48.714;8.738;2023-05-02T04:01:36;6.40;;;5.80;;
10985;SDS011;5546;48.714;8.738;2023-05-02T04:04:02;6.70;;;5.90;;
10985;SDS011;5546;48.714;8.738;2023-05-02T04:06:28;8.60;;;5.50;;
10985;SDS011;5546;48.714;8.738;2023-05-02T04:08:55;7.47;;;5.93;;
10985;SDS011;5546;48.714;8.738;2023-05-02T04:11:23;6.43;;;5.83;;
10985;SDS011;5546;48.714;8.738;2023-05-02T04:13:51;7.13;;;5.23;;
10985;SDS011;5546;48.714;8.738;2023-05-02T04:16:16;5.90;;;5.30;;
10985;SDS011;5546;48.714;8.738;2023-05-02T04:18:42;7.13;;;5.80;;
10985;SDS011;5546;48.714;8.738;2023-05-02T04:21:08;16.57;;;11.47;;
10985;SDS011;5546;48.714;8.738;2023-05-02T04:23:34;13.27;;;11.83;;
10985;SDS011;5546;48.714;8.738;2023-05-02T04:26:00;8.93;;;6.07;;
10985;SDS011;5546;48.714;8.738;2023-05-02T04:28:26;8.50;;;7.60;;
10985;SDS011;5546;48.714;8.738;2023-05-02T04:30:52;11.67;;;10.57;;
10985;SDS011;5546;48.714;8.738;2023-05-02T04:33:18;18.10;;;16.57;;
10985;SDS011;5546;48.714;8.738;2023-05-02T04:35:44;8.10;;;7.10;;
10985;SDS011;5546;48.714;8.738;2023-05-02T04:38:10;7.40;;;6.70;;
10985;SDS011;5546;48.714;8.738;2023-05-02T04:40:35;6.37;;;5.77;;
10985;SDS011;5546;48.714;8.738;2023-05-02T04:43:01;5.97;;;5.43;;
10985;SDS011;5546;48.714;8.738;2023-05-02T04:45:26;6.33;;;5.73;;
10985;SDS011;5546;48.714;8.738;2023-05-02T04:47:52;6.60;;;5.43;;
10985;SDS011;5546;48.714;8.738;2023-05-02T04:50:18;5.63;;;5.07;;
10985;SDS011;5546;48.714;8.738;2023-05-02T04:52:44;5.93;;;5.40;;
10985;SDS011;5546;48.714;8.738;2023-05-02T04:55:10;7.67;;;6.33;;
10985;SDS011;5546;48.714;8.738;2023-05-02T04:57:35;6.10;;;5.50;;
10985;SDS011;5546;48.714;8.738;2023-05-02T05:00:01;7.63;;;4.87;;
10985;SDS011;5546;48.714;8.738;2023-05-02T05:02:26;5.50;;;5.00;;
10985;SDS011;5546;48.714;8.738;2023-05-02T05:04:52;5.33;;;4.60;;
10985;SDS011;5546;48.714;8.738;2023-05-02T05:07:18;5.47;;;4.93;;
10985;SDS011;5546;48.714;8.738;2023-05-02T05:09:44;6.43;;;5.37;;
10985;SDS011;5546;48.714;8.738;2023-05-02T05:12:10;6.00;;;5.33;;
10985;SDS011;5546;48.714;8.738;2023-05-02T05:14:36;6.80;;;5.60;;
10985;SDS011;5546;48.714;8.738;2023-05-02T05:17:02;6.77;;;4.70;;
10985;SDS011;5546;48.714;8.738;2023-05-02T05:19:28;5.77;;;4.80;;
10985;SDS011;5546;48.714;8.738;2023-05-02T05:21:53;4.60;;;4.20;;
10985;SDS011;5546;48.714;8.738;2023-05-02T05:24:19;6.50;;;4.37;;
10985;SDS011;5546;48.714;8.738;2023-05-02T05:26:45;15.43;;;12.77;;
10985;SDS011;5546;48.714;8.738;2023-05-02T05:29:11;4.47;;;4.07;;
10985;SDS011;5546;48.714;8.738;2023-05-02T05:31:37;4.47;;;3.93;;
10985;SDS011;5546;48.714;8.738;2023-05-02T05:34:02;4.83;;;3.90;;
10985;SDS011;5546;48.714;8.738;2023-05-02T05:36:28;4.47;;;4.07;;
10985;SDS011;5546;48.714;8.738;2023-05-02T05:38:55;4.23;;;3.83;;
10985;SDS011;5546;48.714;8.738;2023-05-02T05:41:21;6.63;;;4.90;;
10985;SDS011;5546;48.714;8.738;2023-05-02T05:43:46;5.47;;;4.97;;
10985;SDS011;5546;48.714;8.738;2023-05-02T05:46:12;4.77;;;4.37;;
10985;SDS011;5546;48.714;8.738;2023-05-02T05:48:38;4.13;;;3.73;;
10985;SDS011;5546;48.714;8.738;2023-05-02T05:51:04;4.13;;;3.70;;
10985;SDS011;5546;48.714;8.738;2023-05-02T05:53:30;4.40;;;4.00;;
10985;SDS011;5546;48.714;8.738;2023-05-02T05:55:56;4.37;;;3.97;;
10985;SDS011;5546;48.714;8.738;2023-05-02T05:58:23;4.13;;;3.83;;
10985;SDS011;5546;48.714;8.738;2023-05-02T06:00:48;4.40;;;3.87;;
10985;SDS011;5546;48.714;8.738;2023-05-02T06:03:14;4.87;;;4.37;;
10985;SDS011;5546;48.714;8.738;2023-05-02T06:05:40;4.57;;;4.17;;
10985;SDS011;5546;48.714;8.738;2023-05-02T06:08:06;4.70;;;4.23;;
10985;SDS011;5546;48.714;8.738;2023-05-02T06:10:33;4.40;;;4.00;;
10985;SDS011;5546;48.714;8.738;2023-05-02T06:12:58;4.77;;;4.37;;
10985;SDS011;5546;48.714;8.738;2023-05-02T06:15:24;6.30;;;4.77;;
10985;SDS011;5546;48.714;8.738;2023-05-02T06:17:50;4.47;;;3.70;;
10985;SDS011;5546;48.714;8.738;2023-05-02T06:20:16;3.30;;;3.00;;
10985;SDS011;5546;48.714;8.738;2023-05-02T06:22:42;3.60;;;3.30;;
10985;SDS011;5546;48.714;8.738;2023-05-02T06:25:08;4.60;;;3.20;;
10985;SDS011;5546;48.714;8.738;2023-05-02T06:27:34;6.07;;;3.63;;
10985;SDS011;5546;48.714;8.738;2023-05-02T06:30:00;3.53;;;3.23;;
10985;SDS011;5546;48.714;8.738;2023-05-02T06:32:32;4.37;;;3.13;;
10985;SDS011;5546;48.714;8.738;2023-05-02T06:34:57;5.53;;;3.40;;
10985;SDS011;5546;48.714;8.738;2023-05-02T06:37:23;5.23;;;3.60;;
10985;SDS011;5546;48.714;8.738;2023-05-02T06:39:49;3.80;;;3.50;;
10985;SDS011;5546;48.714;8.738;2023-05-02T06:42:14;3.60;;;3.30;;
10985;SDS011;5546;48.714;8.738;2023-05-02T06:44:40;4.33;;;3.40;;
10985;SDS011;5546;48.714;8.738;2023-05-02T06:47:05;3.73;;;3.43;;
10985;SDS011;5546;48.714;8.738;2023-05-02T06:49:31;3.50;;;3.20;;
10985;SDS011;5546;48.714;8.738;2023-05-02T06:51:57;3.83;;;3.07;;
10985;SDS011;5546;48.714;8.738;2023-05-02T06:54:23;4.50;;;3.33;;
10985;SDS011;5546;48.714;8.738;2023-05-02T06:56:49;4.03;;;3.70;;
10985;SDS011;5546;48.714;8.738;2023-05-02T06:59:15;4.23;;;3.83;;
10985;SDS011;5546;48.714;8.738;2023-05-02T07:01:42;3.87;;;3.57;;
10985;SDS011;5546;48.714;8.738;2023-05-02T07:04:07;3.63;;;3.33;;
10985;SDS011;5546;48.714;8.738;2023-05-02T07:06:34;3.67;;;3.37;;
10985;SDS011;5546;48.714;8.738;2023-05-02T07:08:59;4.17;;;3.73;;
10985;SDS011;5546;48.714;8.738;2023-05-02T07:11:25;9.90;;;3.53;;
10985;SDS011;5546;48.714;8.738;2023-05-02T07:13:52;4.10;;;3.80;;
10985;SDS011;5546;48.714;8.738;2023-05-02T07:16:17;3.60;;;3.30;;
10985;SDS011;5546;48.714;8.738;2023-05-02T07:18:43;10.20;;;3.20;;
10985;SDS011;5546;48.714;8.738;2023-05-02T07:21:09;3.97;;;3.57;;
10985;SDS011;5546;48.714;8.738;2023-05-02T07:23:35;7.97;;;3.53;;
10985;SDS011;5546;48.714;8.738;2023-05-02T07:26:01;4.20;;;3.60;;
10985;SDS011;5546;48.714;8.738;2023-05-02T07:28:27;10.03;;;3.50;;
10985;SDS011;5546;48.714;8.738;2023-05-02T07:30:53;5.27;;;3.50;;
10985;SDS011;5546;48.714;8.738;2023-05-02T07:33:19;5.57;;;3.47;;
10985;SDS011;5546;48.714;8.738;2023-05-02T07:35:44;6.37;;;3.80;;
10985;SDS011;5546;48.714;8.738;2023-05-02T07:38:10;7.70;;;3.93;;
10985;SDS011;5546;48.714;8.738;2023-05-02T07:40:35;6.33;;;5.47;;
10985;SDS011;5546;48.714;8.738;2023-05-02T07:43:01;8.10;;;7.30;;
10985;SDS011;5546;48.714;8.738;2023-05-02T07:45:27;7.77;;;7.03;;
10985;SDS011;5546;48.714;8.738;2023-05-02T07:47:53;11.97;;;8.90;;
10985;SDS011;5546;48.714;8.738;2023-05-02T07:50:18;12.37;;;11.10;;
10985;SDS011;5546;48.714;8.738;2023-05-02T07:52:44;16.77;;;14.90;;
10985;SDS011;5546;48.714;8.738;2023-05-02T07:55:10;17.03;;;15.33;;
10985;SDS011;5546;48.714;8.738;2023-05-02T07:57:36;18.90;;;16.73;;
10985;SDS011;5546;48.714;8.738;2023-05-02T08:00:01;20.10;;;16.50;;
10985;SDS011;5546;48.714;8.738;2023-05-02T08:02:27;18.63;;;16.73;;
10985;SDS011;5546;48.714;8.738;2023-05-02T08:04:53;18.20;;;16.33;;
10985;SDS011;5546;48.714;8.738;2023-05-02T08:07:19;20.93;;;18.63;;
10985;SDS011;5546;48.714;8.738;2023-05-02T08:09:45;20.70;;;17.33;;
10985;SDS011;5546;48.714;8.738;2023-05-02T08:12:11;19.33;;;17.43;;
10985;SDS011;5546;48.714;8.738;2023-05-02T08:14:36;19.93;;;17.83;;
10985;SDS011;5546;48.714;8.738;2023-05-02T08:17:02;22.20;;;18.97;;
10985;SDS011;5546;48.714;8.738;2023-05-02T08:19:27;22.60;;;20.20;;
10985;SDS011;5546;48.714;8.738;2023-05-02T08:21:53;24.53;;;21.90;;
10985;SDS011;5546;48.714;8.738;2023-05-02T08:24:19;23.83;;;21.33;;
10985;SDS011;5546;48.714;8.738;2023-05-02T08:26:45;23.63;;;21.13;;
10985;SDS011;5546;48.714;8.738;2023-05-02T08:29:10;24.97;;;22.20;;
10985;SDS011;5546;48.714;8.738;2023-05-02T08:31:37;26.37;;;23.57;;
10985;SDS011;5546;48.714;8.738;2023-05-02T08:34:03;25.30;;;22.80;;
10985;SDS011;5546;48.714;8.738;2023-05-02T08:36:29;24.83;;;22.33;;
10985;SDS011;5546;48.714;8.738;2023-05-02T08:38:56;24.77;;;21.83;;
10985;SDS011;5546;48.714;8.738;2023-05-02T08:41:21;24.55;;;21.95;;
10985;SDS011;5546;48.714;8.738;2023-05-02T08:43:47;26.13;;;23.33;;
10985;SDS011;5546;48.714;8.738;2023-05-02T08:46:14;24.08;;;21.42;;
10985;SDS011;5546;48.714;8.738;2023-05-02T08:48:41;25.05;;;22.35;;
10985;SDS011;5546;48.714;8.738;2023-05-02T08:51:09;27.25;;;23.35;;
10985;SDS011;5546;48.714;8.738;2023-05-02T08:53:36;25.05;;;22.60;;
10985;SDS011;5546;48.714;8.738;2023-05-02T08:56:02;26.98;;;24.27;;
10985;SDS011;5546;48.714;8.738;2023-05-02T08:58:28;27.00;;;24.25;;
10985;SDS011;5546;48.714;8.738;2023-05-02T09:00:59;25.73;;;23.23;;
10985;SDS011;5546;48.714;8.738;2023-05-02T09:03:33;24.63;;;22.00;;
10985;SDS011;5546;48.714;8.738;2023-05-02T09:08:34;27.98;;;25.05;;
10985;SDS011;5546;48.714;8.738;2023-05-02T09:11:01;28.10;;;25.30;;
10985;SDS011;5546;48.714;8.738;2023-05-02T09:13:28;27.20;;;24.40;;
10985;SDS011;5546;48.714;8.738;2023-05-02T09:16:01;26.80;;;24.20;;
10985;SDS011;5546;48.714;8.738;2023-05-02T09:18:44;28.70;;;25.63;;
10985;SDS011;5546;48.714;8.738;2023-05-02T09:21:16;25.73;;;23.08;;
10985;SDS011;5546;48.714;8.738;2023-05-02T09:23:46;26.70;;;23.20;;
10985;SDS011;5546;48.714;8.738;2023-05-02T09:28:46;28.60;;;23.67;;
10985;SDS011;5546;48.714;8.738;2023-05-02T09:31:16;24.92;;;22.52;;
10985;SDS011;5546;48.714;8.738;2023-05-02T09:33:52;26.42;;;23.98;;
10985;SDS011;5546;48.714;8.738;2023-05-02T09:36:19;27.17;;;24.48;;
10985;SDS011;5546;48.714;8.738;2023-05-02T09:38:46;27.15;;;24.55;;
10985;SDS011;5546;48.714;8.738;2023-05-02T09:41:13;27.52;;;24.55;;
10985;SDS011;5546;48.714;8.738;2023-05-02T09:43:39;28.15;;;23.65;;
10985;SDS011;5546;48.714;8.738;2023-05-02T09:46:06;22.63;;;19.95;;
10985;SDS011;5546;48.714;8.738;2023-05-02T09:48:49;22.70;;;18.65;;
10985;SDS011;5546;48.714;8.738;2023-05-02T09:51:16;18.90;;;17.00;;
10985;SDS011;5546;48.714;8.738;2023-05-02T09:53:43;20.67;;;18.48;;
10985;SDS011;5546;48.714;8.738;2023-05-02T09:56:09;19.45;;;17.52;;
10985;SDS011;5546;48.714;8.738;2023-05-02T09:58:35;18.60;;;16.65;;
10985;SDS011;5546;48.714;8.738;2023-05-02T10:01:00;17.58;;;15.75;;
10985;SDS011;5546;48.714;8.738;2023-05-02T10:03:27;19.98;;;16.35;;
10985;SDS011;5546;48.714;8.738;2023-05-02T10:05:53;16.88;;;15.07;;
10985;SDS011;5546;48.714;8.738;2023-05-02T10:08:20;16.00;;;14.48;;
10985;SDS011;5546;48.714;8.738;2023-05-02T10:10:55;16.95;;;15.35;;
10985;SDS011;5546;48.714;8.738;2023-05-02T10:13:23;16.25;;;14.65;;
10985;SDS011;5546;48.714;8.738;2023-05-02T10:21:00;16.23;;;14.65;;
10985;SDS011;5546;48.714;8.738;2023-05-02T10:23:32;13.98;;;12.60;;
10985;SDS011;5546;48.714;8.738;2023-05-02T10:25:59;14.32;;;12.90;;
10985;SDS011;5546;48.714;8.738;2023-05-02T10:28:26;13.95;;;12.55;;
10985;SDS011;5546;48.714;8.738;2023-05-02T10:30:52;13.98;;;12.75;;
10985;SDS011;5546;48.714;8.738;2023-05-02T10:33:18;14.50;;;13.10;;
10985;SDS011;5546;48.714;8.738;2023-05-02T10:35:45;14.55;;;13.07;;
10985;SDS011;5546;48.714;8.738;2023-05-02T10:38:18;15.18;;;13.77;;
10985;SDS011;5546;48.714;8.738;2023-05-02T10:40:52;14.98;;;13.50;;
10985;SDS011;5546;48.714;8.738;2023-05-02T10:43:26;15.95;;;13.13;;
10985;SDS011;5546;48.714;8.738;2023-05-02T10:45:55;15.95;;;14.35;;
10985;SDS011;5546;48.714;8.738;2023-05-02T10:48:22;16.02;;;14.30;;
10985;SDS011;5546;48.714;8.738;2023-05-02T10:50:52;15.65;;;14.05;;
10985;SDS011;5546;48.714;8.738;2023-05-02T10:53:26;16.27;;;14.00;;
10985;SDS011;5546;48.714;8.738;2023-05-02T10:58:39;16.08;;;14.40;;
10985;SDS011;5546;48.714;8.738;2023-05-02T11:03:52;16.48;;;14.70;;
10985;SDS011;5546;48.714;8.738;2023-05-02T11:06:19;17.52;;;15.07;;
10985;SDS011;5546;48.714;8.738;2023-05-02T11:08:44;17.00;;;15.25;;
10985;SDS011;5546;48.714;8.738;2023-05-02T11:14:05;17.77;;;15.88;;
10985;SDS011;5546;48.714;8.738;2023-05-02T11:19:25;16.67;;;14.88;;
10985;SDS011;5546;48.714;8.738;2023-05-02T11:24:48;15.88;;;14.27;;
10985;SDS011;5546;48.714;8.738;2023-05-02T11:30:05;15.93;;;14.43;;
10985;SDS011;5546;48.714;8.738;2023-05-02T11:35:21;16.05;;;14.32;;
10985;SDS011;5546;48.714;8.738;2023-05-02T11:37:52;12.85;;;11.63;;
10985;SDS011;5546;48.714;8.738;2023-05-02T11:40:20;14.35;;;12.75;;
10985;SDS011;5546;48.714;8.738;2023-05-02T11:42:47;12.88;;;11.68;;
10985;SDS011;5546;48.714;8.738;2023-05-02T11:45:13;15.27;;;12.35;;
10985;SDS011;5546;48.714;8.738;2023-05-02T11:47:39;14.07;;;12.73;;
10985;SDS011;5546;48.714;8.738;2023-05-02T11:50:06;15.48;;;11.80;;
10985;SDS011;5546;48.714;8.738;2023-05-02T11:52:41;14.10;;;12.05;;
10985;SDS011;5546;48.714;8.738;2023-05-02T11:55:11;13.43;;;11.90;;
10985;SDS011;5546;48.714;8.738;2023-05-02T11:57:38;11.88;;;10.77;;
10985;SDS011;5546;48.714;8.738;2023-05-02T12:00:04;12.05;;;10.82;;
10985;SDS011;5546;48.714;8.738;2023-05-02T12:02:38;14.48;;;12.70;;
10985;SDS011;5546;48.714;8.738;2023-05-02T12:05:11;17.00;;;15.35;;
10985;SDS011;5546;48.714;8.738;2023-05-02T12:07:38;17.23;;;14.75;;
10985;SDS011;5546;48.714;8.738;2023-05-02T12:10:04;17.35;;;15.70;;
10985;SDS011;5546;48.714;8.738;2023-05-02T12:12:31;16.27;;;14.68;;
10985;SDS011;5546;48.714;8.738;2023-05-02T12:14:57;13.43;;;12.25;;
10985;SDS011;5546;48.714;8.738;2023-05-02T12:17:27;11.98;;;10.77;;
10985;SDS011;5546;48.714;8.738;2023-05-02T12:19:52;12.82;;;11.40;;
10985;SDS011;5546;48.714;8.738;2023-05-02T12:22:18;15.43;;;13.75;;
10985;SDS011;5546;48.714;8.738;2023-05-02T12:24:43;19.02;;;17.02;;
10985;SDS011;5546;48.714;8.738;2023-05-02T12:27:11;19.10;;;17.30;;
10985;SDS011;5546;48.714;8.738;2023-05-02T12:29:44;18.48;;;16.77;;
10985;SDS011;5546;48.714;8.738;2023-05-02T12:32:12;19.52;;;17.70;;
10985;SDS011;5546;48.714;8.738;2023-05-02T12:34:38;20.48;;;18.42;;
10985;SDS011;5546;48.714;8.738;2023-05-02T12:37:04;20.45;;;18.45;;
10985;SDS011;5546;48.714;8.738;2023-05-02T12:41:59;22.15;;;20.05;;
10985;SDS011;5546;48.714;8.738;2023-05-02T12:44:35;22.92;;;20.13;;
10985;SDS011;5546;48.714;8.738;2023-05-02T12:47:05;22.73;;;20.35;;
10985;SDS011;5546;48.714;8.738;2023-05-02T12:49:32;23.85;;;21.45;;
10985;SDS011;5546;48.714;8.738;2023-05-02T12:52:12;23.55;;;21.25;;
10985;SDS011;5546;48.714;8.738;2023-05-02T12:54:37;22.35;;;20.05;;
10985;SDS011;5546;48.714;8.738;2023-05-02T12:57:03;20.33;;;18.33;;
10985;SDS011;5546;48.714;8.738;2023-05-02T12:59:30;20.25;;;18.30;;
10985;SDS011;5546;48.714;8.738;2023-05-02T13:01:56;19.70;;;17.88;;
10985;SDS011;5546;48.714;8.738;2023-05-02T13:04:39;20.17;;;18.27;;
10985;SDS011;5546;48.714;8.738;2023-05-02T13:07:05;19.42;;;17.58;;
10985;SDS011;5546;48.714;8.738;2023-05-02T13:09:31;18.15;;;16.35;;
10985;SDS011;5546;48.714;8.738;2023-05-02T13:11:57;19.30;;;17.40;;
10985;SDS011;5546;48.714;8.738;2023-05-02T13:14:27;17.08;;;15.35;;
10985;SDS011;5546;48.714;8.738;2023-05-02T13:16:53;14.65;;;13.23;;
10985;SDS011;5546;48.714;8.738;2023-05-02T13:19:19;15.32;;;13.82;;
10985;SDS011;5546;48.714;8.738;2023-05-02T13:21:45;15.18;;;13.77;;
10985;SDS011;5546;48.714;8.738;2023-05-02T13:24:11;16.83;;;13.90;;
10985;SDS011;5546;48.714;8.738;2023-05-02T13:26:39;15.23;;;13.82;;
10985;SDS011;5546;48.714;8.738;2023-05-02T13:29:05;15.38;;;13.80;;
10985;SDS011;5546;48.714;8.738;2023-05-02T13:31:31;15.05;;;13.45;;
10985;SDS011;5546;48.714;8.738;2023-05-02T13:33:56;14.73;;;13.30;;
10985;SDS011;5546;48.714;8.738;2023-05-02T13:36:22;14.50;;;13.00;;
10985;SDS011;5546;48.714;8.738;2023-05-02T13:38:48;16.65;;;15.05;;
10985;SDS011;5546;48.714;8.738;2023-05-02T13:41:14;16.95;;;15.32;;
10985;SDS011;5546;48.714;8.738;2023-05-02T13:43:40;20.98;;;14.57;;
10985;SDS011;5546;48.714;8.738;2023-05-02T13:46:05;18.20;;;16.00;;
10985;SDS011;5546;48.714;8.738;2023-05-02T13:48:31;16.65;;;15.00;;
10985;SDS011;5546;48.714;8.738;2023-05-02T13:50:56;18.58;;;15.80;;
10985;SDS011;5546;48.714;8.738;2023-05-02T13:53:22;15.98;;;14.32;;
10985;SDS011;5546;48.714;8.738;2023-05-02T13:55:48;17.58;;;14.88;;
10985;SDS011;5546;48.714;8.738;2023-05-02T13:58:13;15.20;;;13.60;;
10985;SDS011;5546;48.714;8.738;2023-05-02T14:00:39;16.38;;;14.68;;
10985;SDS011;5546;48.714;8.738;2023-05-02T14:03:04;14.93;;;13.32;;
10985;SDS011;5546;48.714;8.738;2023-05-02T14:05:30;14.57;;;11.60;;
10985;SDS011;5546;48.714;8.738;2023-05-02T14:07:56;15.77;;;11.80;;
10985;SDS011;5546;48.714;8.738;2023-05-02T14:10:21;13.90;;;11.77;;
10985;SDS011;5546;48.714;8.738;2023-05-02T14:12:47;12.73;;;10.75;;
10985;SDS011;5546;48.714;8.738;2023-05-02T14:15:12;12.13;;;10.90;;
10985;SDS011;5546;48.714;8.738;2023-05-02T14:17:38;12.57;;;10.15;;
10985;SDS011;5546;48.714;8.738;2023-05-02T14:20:04;11.75;;;9.30;;
10985;SDS011;5546;48.714;8.738;2023-05-02T14:22:30;10.50;;;9.50;;
10985;SDS011;5546;48.714;8.738;2023-05-02T14:24:55;11.68;;;10.00;;
10985;SDS011;5546;48.714;8.738;2023-05-02T14:27:21;10.75;;;9.65;;
10985;SDS011;5546;48.714;8.738;2023-05-02T14:29:47;10.57;;;9.52;;
10985;SDS011;5546;48.714;8.738;2023-05-02T14:32:12;9.45;;;8.52;;
10985;SDS011;5546;48.714;8.738;2023-05-02T14:34:39;11.35;;;10.20;;
10985;SDS011;5546;48.714;8.738;2023-05-02T14:37:05;10.82;;;9.73;;
10985;SDS011;5546;48.714;8.738;2023-05-02T14:39:32;10.77;;;9.68;;
10985;SDS011;5546;48.714;8.738;2023-05-02T14:41:58;12.35;;;9.48;;
10985;SDS011;5546;48.714;8.738;2023-05-02T14:44:24;10.48;;;9.40;;
10985;SDS011;5546;48.714;8.738;2023-05-02T14:46:52;10.50;;;8.25;;
10985;SDS011;5546;48.714;8.738;2023-05-02T14:49:18;8.52;;;7.68;;
10985;SDS011;5546;48.714;8.738;2023-05-02T14:51:44;7.95;;;6.32;;
10985;SDS011;5546;48.714;8.738;2023-05-02T14:54:11;6.28;;;5.65;;
10985;SDS011;5546;48.714;8.738;2023-05-02T14:56:37;7.35;;;6.35;;
10985;SDS011;5546;48.714;8.738;2023-05-02T14:59:02;6.53;;;5.78;;
10985;SDS011;5546;48.714;8.738;2023-05-02T15:01:28;8.80;;;6.03;;
10985;SDS011;5546;48.714;8.738;2023-05-02T15:03:54;8.43;;;5.82;;
10985;SDS011;5546;48.714;8.738;2023-05-02T15:06:19;6.20;;;5.60;;
10985;SDS011;5546;48.714;8.738;2023-05-02T15:08:46;8.07;;;5.93;;
10985;SDS011;5546;48.714;8.738;2023-05-02T15:11:12;8.63;;;6.63;;
10985;SDS011;5546;48.714;8.738;2023-05-02T15:13:37;8.75;;;6.00;;
10985;SDS011;5546;48.714;8.738;2023-05-02T15:16:03;7.20;;;6.30;;
10985;SDS011;5546;48.714;8.738;2023-05-02T15:18:29;11.25;;;7.05;;
10985;SDS011;5546;48.714;8.738;2023-05-02T15:20:55;6.82;;;6.13;;
10985;SDS011;5546;48.714;8.738;2023-05-02T15:23:21;7.43;;;6.43;;
10985;SDS011;5546;48.714;8.738;2023-05-02T15:25:46;6.72;;;5.32;;
10985;SDS011;5546;48.714;8.738;2023-05-02T15:28:12;5.50;;;4.97;;
10985;SDS011;5546;48.714;8.738;2023-05-02T15:30:37;5.38;;;4.85;;
10985;SDS011;5546;48.714;8.738;2023-05-02T15:33:03;5.75;;;5.00;;